Time;durP1;ratioP1;P1;durP2;ratioP2;P2;SDS_P1;SDS_P2;PMS_P1;PMS_P2;Temp;Humidity;BMP_temperature;BMP_pressure;BME280_temperature;BME280_humidity;BME280_pressure;Samples;Min_cycle;Max_cycle;Signal;HPM_P1;HPM_P2
2023/01/03 00:02:15;;;;;;;;;93.33;79.67;;;;;7.70;100.00;100441.47;6278492;20;3660773;-58
2023/01/03 00:04:45;;;;;;;;;90.00;69.67;;;;;7.82;100.00;100435.69;6277509;20;3680471;-59
2023/01/03 00:07:32;;;;;;;;;88.33;74.67;;;;;7.79;100.00;100441.13;6277591;20;3666993;-59
2023/01/03 00:10:09;;;;;;;;;84.50;67.00;;;;;7.85;100.00;100442.72;6275039;20;1931631;-58
2023/01/03 00:12:39;;;;;;;;;88.50;72.00;;;;;7.74;100.00;100450.25;6279681;20;4416993;-58
2023/01/03 00:15:09;;;;;;;;;90.00;75.50;;;;;7.82;100.00;100429.44;6311455;20;3505480;-58
2023/01/03 00:17:37;;;;;;;;;92.00;75.00;;;;;7.80;100.00;100434.00;6304267;20;1933738;-59
2023/01/03 00:20:09;;;;;;;;;89.00;76.00;;;;;7.85;100.00;100429.34;6278035;20;3663812;-58
2023/01/03 00:22:39;;;;;;;;;88.67;71.67;;;;;7.96;100.00;100437.81;6280060;20;3675411;-59
2023/01/03 00:25:09;;;;;;;;;93.00;71.33;;;;;7.97;100.00;100442.22;6282322;20;3670065;-58
2023/01/03 00:27:38;;;;;;;;;90.67;71.33;;;;;7.90;100.00;100451.44;6280113;20;3681629;-58
2023/01/03 00:30:10;;;;;;;;;94.00;73.25;;;;;7.76;100.00;100462.63;6278531;20;4428489;-59
2023/01/03 00:32:40;;;;;;;;;89.00;71.00;;;;;7.77;100.00;100456.38;6316793;20;3673583;-59
2023/01/03 00:35:09;;;;;;;;;87.67;67.67;;;;;7.89;100.00;100463.03;6284375;20;3661769;-58
2023/01/03 00:37:39;;;;;;;;;84.75;69.00;;;;;7.77;100.00;100469.72;6289293;20;4414830;-59
2023/01/03 00:40:10;;;;;;;;;73.33;53.00;;;;;7.84;100.00;100473.03;6314773;20;3636731;-59
2023/01/03 00:45:27;;;;;;;;;77.00;61.00;;;;;7.94;100.00;100469.09;6283815;20;3625262;-59
2023/01/03 00:48:03;;;;;;;;;86.25;66.00;;;;;7.87;100.00;100470.25;6319283;20;4401456;-58
2023/01/03 00:50:37;;;;;;;;;87.75;67.25;;;;;7.98;100.00;100473.41;6314892;20;4435698;-59
2023/01/03 00:53:07;;;;;;;;;89.50;72.25;;;;;7.87;100.00;100478.25;6316856;20;4433674;-59
2023/01/03 00:55:36;;;;;;;;;85.25;67.75;;;;;8.00;100.00;100476.88;6314775;20;4424202;-59
2023/01/03 00:58:06;;;;;;;;;89.00;66.75;;;;;8.05;100.00;100474.88;6317302;20;4433649;-59
2023/01/03 01:00:36;;;;;;;;;88.67;68.00;;;;;7.95;100.00;100473.50;6312672;20;3665893;-58
2023/01/03 01:03:05;;;;;;;;;86.00;68.67;;;;;8.07;100.00;100473.03;6280505;20;3659630;-58
2023/01/03 01:05:35;;;;;;;;;85.25;70.00;;;;;8.01;100.00;100475.94;6285479;20;4422130;-59
2023/01/03 01:08:05;;;;;;;;;83.33;64.67;;;;;8.09;100.00;100473.84;6315788;20;3660680;-59
2023/01/03 01:10:34;;;;;;;;;86.00;67.33;;;;;7.96;100.00;100475.25;6281443;20;3664959;-59
2023/01/03 01:13:02;;;;;;;;;85.00;65.50;;;;;8.05;100.00;100474.88;6280238;20;1928431;-59
2023/01/03 01:15:33;;;;;;;;;84.33;62.67;;;;;8.09;100.00;100481.88;6281630;20;3651358;-59
2023/01/03 01:18:03;;;;;;;;;88.33;66.00;;;;;8.12;100.00;100479.06;6282698;20;3668156;-58
2023/01/03 01:20:32;;;;;;;;;79.67;60.00;;;;;8.14;100.00;100479.91;6280705;20;3639878;-59
2023/01/03 01:23:02;;;;;;;;;78.33;59.33;;;;;8.01;100.00;100483.97;6283053;20;3644899;-59
2023/01/03 01:25:34;;;;;;;;;86.75;66.75;;;;;8.14;100.00;100479.91;6315526;20;4426424;-58
2023/01/03 01:28:03;;;;;;;;;80.33;60.00;;;;;8.11;100.00;100479.16;6313213;20;3638915;-58
2023/01/03 01:30:33;;;;;;;;;83.67;65.00;;;;;8.17;100.00;100481.56;6311661;20;3643036;-59
2023/01/03 01:33:03;;;;;;;;;85.33;68.00;;;;;8.17;100.00;100478.91;6283292;20;3653435;-58
2023/01/03 01:35:32;;;;;;;;;81.33;60.00;;;;;8.13;100.00;100471.91;6279750;20;3652493;-59
2023/01/03 01:38:02;;;;;;;;;83.00;59.67;;;;;8.23;100.00;100478.66;6281581;20;3671164;-59
2023/01/03 01:40:32;;;;;;;;;76.00;56.00;;;;;8.18;100.00;100471.75;6277554;20;3627385;-58
2023/01/03 01:46:30;;;;;;;;;78.67;60.00;;;;;8.27;100.00;100474.06;6281142;20;3628392;-59
2023/01/03 01:49:04;;;;;;;;;82.00;60.00;;;;;8.17;100.00;100478.91;6310925;20;3651331;-59
2023/01/03 01:51:36;;;;;;;;;82.33;58.00;;;;;8.27;100.00;100471.41;6279066;20;3652422;-58
2023/01/03 01:54:06;;;;;;;;;79.33;58.00;;;;;8.25;100.00;100479.47;6279424;20;3637766;-58
2023/01/03 01:56:49;;;;;;;;;77.67;59.00;;;;;8.31;100.00;100481.03;6278928;20;3634646;-59
2023/01/03 01:59:18;;;;;;;;;80.00;60.00;;;;;8.30;100.00;100481.97;6313767;20;4401246;-59
2023/01/03 02:01:51;;;;;;;;;79.00;58.00;;;;;8.28;100.00;100483.84;6314798;20;3654522;-58
2023/01/03 02:04:28;;;;;;;;;82.75;61.75;;;;;8.32;100.00;100488.13;6318038;20;4411723;-59
2023/01/03 02:06:58;;;;;;;;;77.00;58.00;;;;;8.25;100.00;100486.63;6311081;20;3631536;-59
2023/01/03 02:09:31;;;;;;;;;72.67;57.00;;;;;8.20;100.00;100488.63;6312707;20;2854930;-58
2023/01/03 02:16:13;;;;;;;;;71.00;55.33;;;;;8.25;100.00;100486.63;6276651;20;3607626;-59
2023/01/03 02:19:10;;;;;;;;;76.67;55.00;;;;;8.31;100.00;100481.03;6313959;20;3635831;-59
2023/01/03 02:22:56;;;;;;;;;67.33;52.00;;;;;8.31;100.00;100491.72;6280570;20;3625256;-58
2023/01/03 02:25:55;;;;;;;;;72.00;54.00;;;;;8.35;100.00;100488.88;6307675;20;3649246;-58
2023/01/03 02:29:20;;;;;;;;;71.00;53.25;;;;;8.16;100.00;100493.19;6313261;20;3645153;-58
2023/01/03 02:32:15;;;;;;;;;71.67;53.67;;;;;8.21;100.00;100498.38;6311740;20;3645057;-58
2023/01/03 02:35:15;;;;;;;;;75.33;55.00;;;;;8.31;100.00;100497.09;6312151;20;3640020;-58
2023/01/03 02:38:15;;;;;;;;;71.33;55.67;;;;;8.30;100.00;100500.72;6310120;20;3630477;-58
2023/01/03 02:41:39;;;;;;;;;75.00;54.67;;;;;8.30;100.00;100496.22;6307856;20;3625279;-59
2023/01/03 02:44:25;;;;;;;;;68.67;51.00;;;;;8.40;100.00;100495.88;6313259;20;3641929;-59
2023/01/03 02:47:06;;;;;;;;;63.67;49.33;;;;;8.40;100.00;100488.75;6277111;20;3623213;-60
2023/01/03 02:49:43;;;;;;;;;42.67;38.67;;;;;8.33;100.00;100485.38;6318423;20;3576369;-59
2023/01/03 02:52:23;;;;;;;;;63.33;48.33;;;;;8.47;100.00;100487.53;6278519;20;3627538;-59
2023/01/03 02:55:23;;;;;;;;;64.00;49.67;;;;;8.32;100.00;100483.66;6308738;20;3640026;-59
2023/01/03 02:58:15;;;;;;;;;70.33;52.00;;;;;8.48;100.00;100481.28;6308860;20;3634666;-58
2023/01/03 03:00:52;;;;;;;;;61.67;49.33;;;;;8.36;100.00;100479.03;6305391;20;3627365;-59
2023/01/03 03:03:35;;;;;;;;;61.67;43.67;;;;;8.34;100.00;100480.91;6305800;20;3630913;-59
2023/01/03 03:06:28;;;;;;;;;61.00;43.67;;;;;8.29;100.00;100481.13;6307666;20;3638920;-56
2023/01/03 03:08:58;;;;;;;;;56.67;43.33;;;;;8.29;100.00;100486.47;6304754;20;3613853;-58
2023/01/03 03:14:57;;;;;;;;;59.33;45.00;;;;;8.27;100.00;100485.66;6305211;20;3624241;-59
2023/01/03 03:17:30;;;;;;;;;62.67;48.67;;;;;8.40;100.00;100491.41;6311130;20;3645043;-58
2023/01/03 03:26:06;;;;;;;;;61.00;47.00;;;;;8.49;100.00;100491.03;6311544;20;3625280;-58
2023/01/03 03:28:42;;;;;;;;;60.00;44.67;;;;;8.35;100.00;100485.34;6307481;20;3628440;-59
2023/01/03 03:31:39;;;;;;;;;56.00;44.00;;;;;8.40;100.00;100495.88;6311256;20;2850069;-59
2023/01/03 03:34:30;;;;;;;;;56.00;45.00;;;;;8.42;100.00;100494.00;6275990;20;2871217;-59
2023/01/03 03:37:15;;;;;;;;;49.00;39.00;;;;;8.41;100.00;100492.28;6310137;20;2861860;-59
2023/01/03 03:46:05;;;;;;;;;57.33;44.33;;;;;8.66;100.00;100495.72;6308393;20;2869242;-59
2023/01/03 03:52:25;;;;;;;;;53.33;39.67;;;;;8.54;100.00;100510.47;6308196;20;2867954;-59
2023/01/03 03:55:12;;;;;;;;;56.00;41.67;;;;;8.70;100.00;100505.34;6308676;20;2882701;-59
2023/01/03 03:57:58;;;;;;;;;57.33;43.00;;;;;8.70;100.00;100509.84;6309308;20;3620134;-60
2023/01/03 04:00:33;;;;;;;;;52.50;39.00;;;;;8.65;100.00;100503.81;6306334;20;2859649;-59
2023/01/03 04:03:06;;;;;;;;;54.00;43.33;;;;;8.55;100.00;100506.84;6278416;20;3609789;-59
2023/01/03 04:05:43;;;;;;;;;59.00;45.67;;;;;8.60;100.00;100503.13;6313243;20;3631086;-59
2023/01/03 04:08:13;;;;;;;;;59.00;44.00;;;;;8.54;100.00;100502.44;6316982;20;3614903;-60
2023/01/03 04:10:42;;;;;;;;;53.67;40.33;;;;;8.47;100.00;100511.63;6316992;20;3605458;-59
2023/01/03 04:13:12;;;;;;;;;58.33;46.00;;;;;8.27;100.00;100511.53;6283189;20;3621103;-60
2023/01/03 04:15:41;;;;;;;;;60.00;45.00;;;;;8.44;100.00;100518.91;6314861;20;3642973;-59
2023/01/03 04:18:10;;;;;;;;;65.67;52.00;;;;;8.46;100.00;100517.94;6318685;20;3631708;-59
2023/01/03 04:20:39;;;;;;;;;57.67;44.00;;;;;8.48;100.00;100516.06;6283513;20;3609796;-58
2023/01/03 04:23:09;;;;;;;;;59.33;46.00;;;;;8.41;100.00;100530.63;6318242;20;3627462;-59
2023/01/03 04:25:38;;;;;;;;;51.00;41.00;;;;;8.35;100.00;100520.13;6314332;20;2864976;-59
2023/01/03 04:28:08;;;;;;;;;64.33;47.67;;;;;8.46;100.00;100523.28;6316264;20;3632284;-59
2023/01/03 04:30:38;;;;;;;;;55.67;42.33;;;;;8.29;100.00;100528.38;6315287;20;3602465;-59
2023/01/03 04:33:07;;;;;;;;;54.67;42.67;;;;;8.49;100.00;100530.31;6316886;20;2859675;-59
2023/01/03 04:35:37;;;;;;;;;56.33;44.00;;;;;8.39;100.00;100535.16;6311509;20;3617994;-59
2023/01/03 04:38:07;;;;;;;;;58.33;45.67;;;;;8.45;100.00;100532.25;6315384;20;2866051;-59
2023/01/03 04:40:37;;;;;;;;;56.67;44.33;;;;;8.38;100.00;100525.34;6310336;20;3603516;-59
2023/01/03 04:45:56;;;;;;;;;59.67;46.33;;;;;8.34;100.00;100531.75;6316344;20;3643995;-59
2023/01/03 04:48:26;;;;;;;;;61.67;46.67;;;;;8.42;100.00;100532.34;6283766;20;3632559;-59
2023/01/03 04:51:00;;;;;;;;;59.33;44.33;;;;;8.42;100.00;100537.69;6314332;20;3641995;-60
2023/01/03 04:53:29;;;;;;;;;65.33;49.00;;;;;8.27;100.00;100538.28;6315370;20;3649216;-59
2023/01/03 04:55:59;;;;;;;;;58.33;46.00;;;;;8.32;100.00;100541.63;6312606;20;3609641;-60
2023/01/03 04:58:28;;;;;;;;;58.33;45.00;;;;;8.39;100.00;100537.81;6312340;20;3604064;-59
2023/01/03 05:01:03;;;;;;;;;55.33;45.67;;;;;8.45;100.00;100534.94;6311075;20;3621106;-59
2023/01/03 05:03:32;;;;;;;;;52.50;41.50;;;;;8.41;100.00;100530.63;6313522;20;2856531;-59
2023/01/03 05:06:07;;;;;;;;;59.67;47.33;;;;;8.48;100.00;100529.44;6281548;20;3630482;-58
2023/01/03 05:08:37;;;;;;;;;59.00;43.33;;;;;8.54;100.00;100539.91;6316801;20;3625280;-59
2023/01/03 05:11:07;;;;;;;;;58.00;46.00;;;;;8.48;100.00;100534.81;6312281;20;3617958;-58
2023/01/03 05:13:36;;;;;;;;;59.33;43.67;;;;;8.47;100.00;100535.72;6316704;20;3634625;-59
2023/01/03 05:16:11;;;;;;;;;56.67;45.67;;;;;8.38;100.00;100544.09;6309254;20;3613914;-59
2023/01/03 05:18:41;;;;;;;;;56.67;42.33;;;;;8.42;100.00;100540.38;6315893;20;2865180;-59
2023/01/03 05:27:00;;;;;;;;;68.33;52.33;;;;;8.43;100.00;100566.22;6311518;20;3633627;-59
2023/01/03 05:29:31;;;;;;;;;64.00;49.33;;;;;8.40;100.00;100560.09;6313722;20;3628507;-59
2023/01/03 05:32:01;;;;;;;;;63.33;47.00;;;;;8.35;100.00;100560.25;6314284;20;3639819;-60
2023/01/03 05:34:30;;;;;;;;;59.33;46.67;;;;;8.36;100.00;100564.66;6308274;20;3620056;-59
2023/01/03 05:37:00;;;;;;;;;55.67;44.00;;;;;8.28;100.00;100561.41;6312476;20;3616914;-59
2023/01/03 05:39:30;;;;;;;;;56.33;43.33;;;;;8.30;100.00;100568.47;6309815;20;3598274;-60
2023/01/03 05:41:58;;;;;;;;;53.50;44.00;;;;;8.42;100.00;100568.94;6317368;20;2846570;-60
2023/01/03 05:44:31;;;;;;;;;54.67;44.00;;;;;8.32;100.00;100565.69;6285010;20;2857257;-59
2023/01/03 05:47:04;;;;;;;;;58.33;42.33;;;;;8.35;100.00;100573.63;6315314;20;3649634;-60
2023/01/03 05:49:34;;;;;;;;;55.33;43.67;;;;;8.34;100.00;100577.22;6277582;20;2871262;-60
2023/01/03 05:52:04;;;;;;;;;55.00;41.67;;;;;8.19;100.00;100583.16;6310542;20;3606648;-59
2023/01/03 05:54:33;;;;;;;;;54.00;44.00;;;;;8.13;100.00;100585.13;6314479;20;2845194;-60
2023/01/03 05:57:02;;;;;;;;;54.00;42.67;;;;;8.08;100.00;100586.22;6278784;20;2869234;-59
2023/01/03 05:59:31;;;;;;;;;57.33;42.67;;;;;7.98;100.00;100584.81;6313659;20;3625252;-59
2023/01/03 06:02:01;;;;;;;;;58.00;44.00;;;;;8.00;100.00;100575.81;6304691;20;3626521;-59
2023/01/03 06:04:31;;;;;;;;;57.33;45.33;;;;;7.91;100.00;100585.03;6311429;20;3628441;-59
2023/01/03 06:07:00;;;;;;;;;57.00;45.33;;;;;7.81;100.00;100582.75;6312250;20;3621098;-59
2023/01/03 06:09:30;;;;;;;;;59.33;44.33;;;;;7.93;100.00;100586.81;6312162;20;3628429;-59
2023/01/03 06:12:00;;;;;;;;;59.00;45.33;;;;;7.78;100.00;100583.75;6312326;20;3627377;-59
2023/01/03 06:14:28;;;;;;;;;49.00;41.50;;;;;7.97;100.00;100588.44;6309184;20;2862790;-59
2023/01/03 06:19:45;;;;;;;;;58.50;45.50;;;;;8.00;100.00;100604.34;6312114;20;2850336;-59
2023/01/03 06:22:15;;;;;;;;;57.00;44.00;;;;;7.78;100.00;100610.47;6282926;20;3624244;-59
2023/01/03 06:24:44;;;;;;;;;59.67;44.67;;;;;7.94;100.00;100617.97;6313821;20;3644437;-59
2023/01/03 06:27:14;;;;;;;;;61.33;46.00;;;;;7.74;100.00;100626.66;6307872;20;3622192;-59
2023/01/03 06:29:41;;;;;;;;;43.50;37.00;;;;;7.57;100.00;100622.78;6310796;20;2500360;-59
2023/01/03 06:32:11;;;;;;;;;55.00;44.00;;;;;7.70;100.00;100629.44;6278143;20;2857636;-59
2023/01/03 06:34:39;;;;;;;;;45.00;40.33;;;;;7.69;100.00;100626.84;6319494;20;3582582;-58
2023/01/03 06:37:08;;;;;;;;;53.00;41.00;;;;;7.89;100.00;100623.47;6310613;20;2860901;-59
2023/01/03 06:39:38;;;;;;;;;56.33;46.00;;;;;7.77;100.00;100623.91;6282058;20;2851445;-60
2023/01/03 06:53:21;;;;;;;;;40.33;35.00;;;;;7.90;100.00;100633.25;6279574;20;3589950;-59
2023/01/03 06:55:50;;;;;;;;;52.00;41.50;;;;;7.76;100.00;100646.22;6278163;20;2861187;-58
2023/01/03 06:58:26;;;;;;;;;51.00;38.33;;;;;7.66;100.00;100651.88;6280382;20;2865933;-59
2023/01/03 07:00:56;;;;;;;;;52.50;38.00;;;;;7.63;100.00;100648.41;6306852;20;2861397;-59
2023/01/03 07:03:26;;;;;;;;;60.33;46.67;;;;;7.76;100.00;100652.41;6281947;20;3634763;-59
2023/01/03 07:05:55;;;;;;;;;60.33;48.33;;;;;7.73;100.00;100654.34;6310612;20;3627371;-59
2023/01/03 07:08:25;;;;;;;;;65.00;46.33;;;;;7.86;100.00;100667.22;6313061;20;3648201;-58
2023/01/03 07:10:55;;;;;;;;;57.67;44.00;;;;;7.82;100.00;100664.69;6275946;20;2871264;-58
2023/01/03 07:16:15;;;;;;;;;59.00;47.33;;;;;7.99;100.00;100666.81;6312679;20;3611722;-59
2023/01/03 07:18:46;;;;;;;;;63.33;46.00;;;;;7.78;100.00;100671.09;6314080;20;3641176;-59
2023/01/03 07:21:27;;;;;;;;;76.33;58.00;;;;;7.86;100.00;100667.22;6315202;20;3630469;-59
2023/01/03 07:24:03;;;;;;;;;60.33;46.00;;;;;7.91;100.00;100675.09;6311768;20;3638930;-59
2023/01/03 07:26:34;;;;;;;;;77.00;55.67;;;;;7.99;100.00;100664.13;6311827;20;3636838;-59
2023/01/03 07:29:07;;;;;;;;;53.33;43.33;;;;;8.06;100.00;100674.56;6269168;20;2869138;-59
2023/01/03 07:31:41;;;;;;;;;60.00;43.67;;;;;8.16;100.00;100674.22;6309650;20;3642061;-60
2023/01/03 07:34:10;;;;;;;;;50.00;40.50;;;;;7.94;100.00;100679.47;6311726;20;2853405;-60
2023/01/03 07:36:38;;;;;;;;;50.00;40.00;;;;;7.99;100.00;100682.84;6277701;20;2854473;-58
2023/01/03 07:39:07;;;;;;;;;54.00;43.50;;;;;7.97;100.00;100680.22;6282903;20;2858727;-59
2023/01/03 07:44:24;;;;;;;;;57.00;46.33;;;;;8.19;100.00;100684.81;6284531;20;3606570;-59
2023/01/03 07:46:53;;;;;;;;;55.67;44.67;;;;;8.28;100.00;100685.34;6314500;20;3612747;-59
2023/01/03 07:49:23;;;;;;;;;67.33;50.00;;;;;8.37;100.00;100684.13;6315212;20;3650686;-60
2023/01/03 07:51:52;;;;;;;;;63.00;47.00;;;;;7.99;100.00;100704.25;6280640;20;3622153;-59
2023/01/03 07:54:22;;;;;;;;;69.00;51.00;;;;;8.55;100.00;100701.38;6314392;20;3645063;-59
2023/01/03 07:56:51;;;;;;;;;58.00;44.67;;;;;8.32;100.00;100707.50;6312433;20;3622164;-60
2023/01/03 07:59:20;;;;;;;;;55.67;44.00;;;;;8.18;100.00;100715.16;6313422;20;3604438;-59
2023/01/03 08:01:49;;;;;;;;;62.00;47.67;;;;;8.26;100.00;100715.75;6285404;20;3617036;-59
2023/01/03 08:04:19;;;;;;;;;52.67;44.00;;;;;8.27;100.00;100709.50;6315344;20;2857662;-59
2023/01/03 08:06:49;;;;;;;;;54.33;41.33;;;;;8.43;100.00;100705.38;6315278;20;3611752;-59
2023/01/03 08:14:54;;;;;;;;;49.50;41.00;;;;;8.18;100.00;100700.00;6312393;20;2859698;-59
2023/01/03 08:17:22;;;;;;;;;49.50;41.50;;;;;8.12;100.00;100705.56;6284380;20;2848247;-59
2023/01/03 08:19:52;;;;;;;;;56.33;43.00;;;;;8.36;100.00;100714.53;6284128;20;3611783;-60
2023/01/03 08:22:21;;;;;;;;;53.00;42.33;;;;;8.50;100.00;100696.19;6315796;20;3605608;-60
2023/01/03 08:24:50;;;;;;;;;52.67;40.00;;;;;8.56;100.00;100709.34;6320454;20;3610680;-59
2023/01/03 08:27:20;;;;;;;;;57.67;42.33;;;;;8.59;100.00;100712.84;6282873;20;3626446;-59
2023/01/03 08:29:49;;;;;;;;;54.00;40.00;;;;;8.41;100.00;100728.63;6315322;20;3624283;-59
2023/01/03 08:32:20;;;;;;;;;38.67;30.33;;;;;8.38;100.00;100723.38;6285632;20;3615953;-59
2023/01/03 08:34:49;;;;;;;;;45.33;37.67;;;;;8.64;100.00;100729.63;6286395;20;3586724;-60
2023/01/03 08:37:18;;;;;;;;;45.50;39.00;;;;;8.83;100.00;100725.31;6283335;20;2847226;-59
2023/01/03 08:40:01;;;;;;;;;50.67;36.33;;;;;8.31;100.00;100727.19;6286108;20;2862964;-59
2023/01/03 08:42:29;;;;;;;;;54.00;41.67;;;;;8.49;100.00;100731.91;6313491;20;3590905;-59
2023/01/03 08:45:07;;;;;;;;;44.50;37.00;;;;;8.61;100.00;100729.72;6284023;20;2847173;-59
2023/01/03 08:47:37;;;;;;;;;52.00;40.00;;;;;8.51;100.00;100730.06;6281456;20;2747205;-60
2023/01/03 08:50:08;;;;;;;;;56.00;40.33;;;;;8.84;100.00;100726.19;6311869;20;2881721;-59
2023/01/03 08:52:37;;;;;;;;;51.67;41.67;;;;;8.91;100.00;100720.53;6314649;20;2847251;-59
2023/01/03 08:55:08;;;;;;;;;55.33;41.67;;;;;8.80;100.00;100722.75;6314820;20;3629608;-59
2023/01/03 08:57:39;;;;;;;;;52.00;41.67;;;;;8.72;100.00;100733.75;6312453;20;2842080;-59
2023/01/03 09:00:09;;;;;;;;;54.67;42.33;;;;;8.98;100.00;100730.09;6307245;20;2853478;-59
2023/01/03 09:02:39;;;;;;;;;54.33;43.00;;;;;8.98;100.00;100735.44;6315877;20;2847247;-58
2023/01/03 09:05:09;;;;;;;;;50.00;40.00;;;;;8.95;100.00;100743.59;6314821;20;2861832;-59
2023/01/03 09:07:38;;;;;;;;;60.00;46.33;;;;;9.07;100.00;100741.38;6281021;20;3631537;-60
2023/01/03 09:10:08;;;;;;;;;57.00;43.00;;;;;9.06;100.00;100742.31;6313490;20;3630553;-59
2023/01/03 09:12:38;;;;;;;;;58.33;47.33;;;;;9.05;100.00;100745.91;6316694;20;3615923;-60
2023/01/03 09:15:08;;;;;;;;;62.33;50.00;;;;;9.09;100.00;100743.06;6315395;20;3635717;-59
2023/01/03 09:17:41;;;;;;;;;65.67;50.00;;;;;9.08;100.00;100745.78;6315922;20;3614056;-59
2023/01/03 09:20:15;;;;;;;;;63.33;49.00;;;;;9.31;100.00;100747.59;6282200;20;3633995;-59
2023/01/03 09:22:46;;;;;;;;;68.67;53.33;;;;;9.29;100.00;100747.63;6283321;20;3630497;-60
2023/01/03 09:25:16;;;;;;;;;62.00;49.00;;;;;9.34;100.00;100742.09;6314034;20;3634736;-60
2023/01/03 09:27:47;;;;;;;;;61.67;47.67;;;;;9.25;100.00;100738.00;6309009;20;3629542;-60
2023/01/03 09:30:18;;;;;;;;;61.33;48.33;;;;;9.24;100.00;100738.91;6310216;20;3631614;-60
2023/01/03 09:32:51;;;;;;;;;60.67;46.33;;;;;8.94;100.00;100740.97;6313218;20;3626342;-59
2023/01/03 09:35:21;;;;;;;;;59.33;47.67;;;;;9.08;100.00;100740.44;6312679;20;3612754;-59
2023/01/03 09:37:50;;;;;;;;;55.00;44.33;;;;;9.07;100.00;100744.94;6309326;20;2859774;-60
2023/01/03 09:40:20;;;;;;;;;58.67;48.00;;;;;9.36;100.00;100743.78;6310020;20;3621193;-60
2023/01/03 09:45:52;;;;;;;;;66.33;48.00;;;;;9.12;100.00;100742.09;6310340;20;3638846;-60
2023/01/03 09:48:40;;;;;;;;;58.67;47.00;;;;;9.24;100.00;100733.53;6275051;20;2867061;-59
2023/01/03 10:04:32;;;;;;;;;60.00;45.33;;;;;9.74;100.00;100730.66;6309973;20;3620216;-59
2023/01/03 10:07:46;;;;;;;;;62.33;48.33;;;;;9.73;100.00;100733.41;6311161;20;3617978;-60
2023/01/03 10:11:09;;;;;;;;;77.00;59.67;;;;;9.73;100.00;100733.41;6313962;20;3629535;-60
2023/01/03 10:14:07;;;;;;;;;108.00;91.50;;;;;9.85;100.00;100728.41;6274937;20;1941149;-58
2023/01/03 10:17:37;;;;;;;;;58.67;46.00;;;;;9.29;100.00;100720.84;6280174;20;2868088;-61
2023/01/03 10:20:48;;;;;;;;;57.00;44.00;;;;;9.39;100.00;100716.00;6309475;20;3613953;-60
2023/01/03 10:23:18;;;;;;;;;52.67;44.00;;;;;9.87;100.00;100715.81;6313375;20;2853573;-58
2023/01/03 10:25:48;;;;;;;;;51.67;42.00;;;;;9.77;100.00;100719.81;6311735;20;2847350;-58
2023/01/03 10:28:43;;;;;;;;;55.33;43.00;;;;;9.77;100.00;100724.28;6309973;20;3617079;-59
2023/01/03 10:31:56;;;;;;;;;57.00;45.67;;;;;9.61;100.00;100713.31;6309107;20;3615907;-59
2023/01/03 10:34:26;;;;;;;;;55.00;44.33;;;;;9.71;100.00;100717.34;6311243;20;2850451;-59
2023/01/03 10:36:55;;;;;;;;;63.33;51.00;;;;;9.97;100.00;100710.91;6314546;20;3612813;-60
2023/01/03 10:39:31;;;;;;;;;61.67;47.67;;;;;10.01;100.00;100706.28;6279237;20;3635689;-59
2023/01/03 10:42:05;;;;;;;;;55.00;45.67;;;;;10.29;100.00;100711.34;6314018;20;3612933;-59
2023/01/03 10:44:34;;;;;;;;;56.33;45.00;;;;;10.26;100.00;100711.47;6307638;20;2857875;-59
2023/01/03 10:47:15;;;;;;;;;45.67;40.67;;;;;10.18;100.00;100714.47;6314165;20;3581522;-59
2023/01/03 10:49:46;;;;;;;;;57.00;44.33;;;;;9.94;100.00;100704.81;6308216;20;2861931;-61
2023/01/03 10:52:22;;;;;;;;;59.67;45.33;;;;;10.04;100.00;100708.84;6310186;20;3637737;-60
2023/01/03 10:55:15;;;;;;;;;59.67;46.33;;;;;10.13;100.00;100703.06;6309405;20;3636745;-59
2023/01/03 10:58:13;;;;;;;;;58.00;48.33;;;;;10.16;100.00;100710.09;6310401;20;3601417;-59
2023/01/03 11:00:42;;;;;;;;;58.33;47.00;;;;;10.30;100.00;100710.44;6276012;20;3627389;-59
2023/01/03 11:03:18;;;;;;;;;101.50;88.00;;;;;10.68;100.00;100708.69;6305739;20;1943145;-59
2023/01/03 11:05:59;;;;;;;;;76.00;61.75;;;;;10.62;100.00;100698.25;6281142;20;4392070;-58
2023/01/03 11:08:47;;;;;;;;;67.50;52.75;;;;;10.94;100.00;100695.88;6314006;20;3628529;-59
2023/01/03 11:11:54;;;;;;;;;55.33;44.00;;;;;11.09;100.00;100707.75;6308414;20;2856616;-58
2023/01/03 11:14:26;;;;;;;;;54.67;45.00;;;;;10.81;100.00;100692.03;6308708;20;3614864;-58
2023/01/03 11:17:04;;;;;;;;;64.75;49.25;;;;;10.77;100.00;100697.53;6313953;20;3639864;-59
2023/01/03 11:19:34;;;;;;;;;59.00;48.67;;;;;10.57;100.00;100692.22;6308370;20;3612760;-59
2023/01/03 11:22:12;;;;;;;;;56.33;46.00;;;;;10.51;100.00;100690.69;6309314;20;3624643;-59
2023/01/03 11:25:15;;;;;;;;;63.33;52.67;;;;;10.95;100.00;100695.81;6314070;20;3614948;-59
2023/01/03 11:28:47;;;;;;;;;66.00;52.67;;;;;11.39;100.00;100698.19;6277502;20;3604432;-59
2023/01/03 11:32:00;;;;;;;;;279.50;262.75;;;;;11.37;100.00;100696.50;6309660;20;4503364;-57
2023/01/03 11:35:02;;;;;;;;;86.67;79.67;;;;;11.09;100.00;100692.47;6281303;20;3661704;-58
2023/01/03 11:38:48;;;;;;;;;60.00;46.67;;;;;11.40;100.00;100685.59;6279764;20;3620103;-57
2023/01/03 11:41:31;;;;;;;;;66.00;53.67;;;;;11.44;100.00;100689.91;6313523;20;3612804;-58
2023/01/03 11:44:50;;;;;;;;;81.67;71.67;;;;;11.45;100.00;100688.94;6277240;20;3666492;-59
2023/01/03 11:48:21;;;;;;;;;80.67;71.33;;;;;11.75;100.00;100681.16;6275832;20;3654580;-58
2023/01/03 11:51:15;;;;;;;;;58.67;45.67;;;;;11.25;100.00;100681.84;6274802;20;3626353;-59
2023/01/03 11:54:25;;;;;;;;;71.67;56.00;;;;;11.61;100.00;100678.28;6313039;20;3617068;-59
2023/01/03 11:57:12;;;;;;;;;62.33;50.33;;;;;11.96;100.00;100679.25;6280646;20;3604470;-58
2023/01/03 12:00:46;;;;;;;;;60.67;47.67;;;;;11.83;100.00;100670.03;6310112;20;3625339;-58
2023/01/03 12:04:02;;;;;;;;;55.33;45.00;;;;;11.73;100.00;100680.38;6280977;20;3610694;-58
2023/01/03 12:07:23;;;;;;;;;49.00;39.00;;;;;11.69;100.00;100677.91;6313865;20;3617017;-56
2023/01/03 12:10:21;;;;;;;;;50.33;39.33;;;;;11.75;98.92;100683.00;6275826;20;3604455;-59
2023/01/03 12:12:59;;;;;;;;;51.00;43.00;;;;;11.83;99.57;100681.66;6312532;20;2837806;-59
2023/01/03 12:16:09;;;;;;;;;48.67;39.67;;;;;11.93;99.80;100682.09;6309416;20;3604587;-59
2023/01/03 12:18:56;;;;;;;;;47.00;37.67;;;;;11.71;99.60;100678.72;6275496;20;3622166;-59
2023/01/03 12:21:42;;;;;;;;;46.67;40.00;;;;;11.62;100.00;100680.91;6313449;20;3587766;-56
2023/01/03 12:24:38;;;;;;;;;50.33;41.67;;;;;11.39;100.00;100686.56;6276435;20;2862947;-57
2023/01/03 12:27:34;;;;;;;;;42.67;35.33;;;;;11.17;100.00;100676.84;6314595;20;3620084;-57
2023/01/03 12:30:31;;;;;;;;;47.50;39.00;;;;;11.25;100.00;100670.25;6279507;20;2838899;-57
2023/01/03 12:33:29;;;;;;;;;50.50;42.50;;;;;11.31;100.00;100680.69;6287302;20;2857560;-57
2023/01/03 12:36:30;;;;;;;;;74.67;62.33;;;;;11.42;100.00;100681.03;6280282;20;3614022;-57
2023/01/03 12:39:38;;;;;;;;;258.67;224.67;;;;;11.21;100.00;100686.50;6281374;20;3710852;-57
2023/01/03 12:42:34;;;;;;;;;215.33;183.67;;;;;11.38;100.00;100684.81;6281461;20;3700286;-60
2023/01/03 12:45:09;;;;;;;;;70.50;52.75;;;;;11.33;100.00;100678.81;6283205;20;3653397;-56
2023/01/03 12:47:46;;;;;;;;;82.00;69.50;;;;;11.51;100.00;100677.91;6289494;20;3672316;-56
2023/01/03 12:50:34;;;;;;;;;63.25;49.50;;;;;11.56;100.00;100673.16;6314578;20;3626281;-56
2023/01/03 12:53:43;;;;;;;;;61.33;48.33;;;;;11.57;100.00;100671.34;6314006;20;3621097;-56
2023/01/03 12:56:46;;;;;;;;;54.33;42.67;;;;;11.14;100.00;100674.31;6283595;20;3592961;-56
2023/01/03 12:59:51;;;;;;;;;42.33;33.67;;;;;10.96;100.00;100669.81;6281574;20;2863877;-57
2023/01/03 13:02:44;;;;;;;;;49.67;37.33;;;;;10.82;100.00;100662.41;6319163;20;3619050;-57